createdAt,value
2022-12-03T00:01:41.580Z,73.67
2022-12-03T00:04:11.191Z,62.37
2022-12-03T00:06:40.959Z,71.13
2022-12-03T00:09:10.653Z,75.00
2022-12-03T00:11:40.304Z,69.73
2022-12-03T00:14:12.524Z,61.90
2022-12-03T00:16:42.114Z,62.20
2022-12-03T00:19:11.727Z,60.00
2022-12-03T00:21:41.390Z,61.27
2022-12-03T00:24:11.748Z,65.27
2022-12-03T00:26:41.385Z,62.30
2022-12-03T00:29:13.924Z,62.10
2022-12-03T00:31:45.687Z,62.40
2022-12-03T00:34:15.456Z,57.90
2022-12-03T00:36:45.012Z,64.73
2022-12-03T00:39:14.583Z,62.87
2022-12-03T00:41:44.220Z,66.83
2022-12-03T00:44:16.611Z,65.13
2022-12-03T00:46:46.308Z,63.40
2022-12-03T00:49:16.242Z,60.40
2022-12-03T00:51:45.963Z,67.93
2022-12-03T00:54:15.811Z,62.93
2022-12-03T00:56:45.456Z,61.50
2022-12-03T00:59:17.779Z,61.27
2022-12-03T01:01:47.532Z,59.10
2022-12-03T01:04:17.354Z,59.87
2022-12-03T01:06:47.082Z,64.03
2022-12-03T01:09:16.705Z,62.13
2022-12-03T01:11:46.380Z,65.20
2022-12-03T01:14:20.577Z,67.20
2022-12-03T01:16:50.665Z,62.13
2022-12-03T01:19:20.854Z,63.50
2022-12-03T01:21:52.950Z,59.23
2022-12-03T01:24:23.027Z,62.07
2022-12-03T01:26:52.709Z,64.27
2022-12-03T01:29:25.123Z,59.70
2022-12-03T01:32:07.124Z,61.27
2022-12-03T01:34:36.815Z,58.10
2022-12-03T01:37:06.551Z,57.33
2022-12-03T01:39:36.146Z,58.53
2022-12-03T01:42:06.747Z,65.63
2022-12-03T01:44:42.194Z,58.63
2022-12-03T01:47:16.636Z,53.00
2022-12-03T01:49:49.465Z,63.97
2022-12-03T01:52:23.587Z,60.30
2022-12-03T01:54:56.541Z,58.07
2022-12-03T01:57:29.706Z,61.10
2022-12-03T02:00:03.393Z,71.23
2022-12-03T02:02:35.025Z,71.10
2022-12-03T02:05:09.734Z,66.00
2022-12-03T02:07:39.423Z,68.50
2022-12-03T02:10:10.155Z,65.57
2022-12-03T02:12:43.972Z,70.40
2022-12-03T02:15:16.540Z,60.63
2022-12-03T02:17:46.877Z,63.90
2022-12-03T02:20:17.150Z,51.57
2022-12-03T02:22:56.234Z,63.27
2022-12-03T02:25:32.164Z,58.67
2022-12-03T02:28:02.603Z,58.50
2022-12-03T02:30:33.840Z,57.37
2022-12-03T02:33:04.414Z,53.77
2022-12-03T02:35:37.676Z,60.33
2022-12-03T02:38:14.577Z,50.93
2022-12-03T02:40:48.727Z,56.30
2022-12-03T02:43:18.142Z,54.73
2022-12-03T02:45:50.900Z,56.93
2022-12-03T02:48:25.093Z,57.23
2022-12-03T02:50:57.798Z,50.97
2022-12-03T02:53:30.920Z,56.67
2022-12-03T02:56:05.067Z,63.20
2022-12-03T02:58:35.780Z,74.43
2022-12-03T03:01:06.688Z,60.10
2022-12-03T03:03:36.851Z,66.17
2022-12-03T03:06:09.198Z,64.20
2022-12-03T03:08:41.043Z,71.40
2022-12-03T03:11:13.892Z,70.57
2022-12-03T03:13:43.725Z,66.03
2022-12-03T03:16:13.327Z,66.67
2022-12-03T03:18:43.416Z,67.50
2022-12-03T03:21:13.211Z,67.83
2022-12-03T03:23:42.811Z,60.67
2022-12-03T03:26:16.823Z,56.47
2022-12-03T03:28:50.004Z,55.23
2022-12-03T03:31:24.270Z,57.43
2022-12-03T03:33:54.598Z,55.93
2022-12-03T03:36:25.751Z,62.30
2022-12-03T03:38:55.732Z,66.07
2022-12-03T03:41:29.643Z,64.77
2022-12-03T03:43:59.787Z,61.63
2022-12-03T03:46:33.501Z,64.60
2022-12-03T03:49:04.048Z,54.13
2022-12-03T03:51:34.638Z,54.27
2022-12-03T03:54:06.923Z,50.33
2022-12-03T03:56:39.727Z,50.90
2022-12-03T03:59:09.432Z,50.60
2022-12-03T04:01:39.701Z,52.77
2022-12-03T04:04:14.258Z,52.33
2022-12-03T04:06:43.854Z,55.50
2022-12-03T04:09:13.465Z,53.97
2022-12-03T04:11:58.167Z,54.60
2022-12-03T04:14:28.015Z,56.97
2022-12-03T04:16:57.725Z,51.63
2022-12-03T04:19:27.485Z,47.97
2022-12-03T04:22:09.507Z,43.93
2022-12-03T04:24:39.252Z,48.07
2022-12-03T04:27:24.248Z,41.87
2022-12-03T04:29:53.850Z,36.73
2022-12-03T04:32:35.903Z,33.97
2022-12-03T04:35:18.160Z,36.40
2022-12-03T04:37:47.944Z,35.83
2022-12-03T04:40:30.000Z,31.93
2022-12-03T04:43:02.322Z,37.07
2022-12-03T04:45:32.172Z,36.30
2022-12-03T04:48:01.935Z,39.97
2022-12-03T04:50:31.606Z,39.70
2022-12-03T04:53:01.253Z,43.10
2022-12-03T04:55:30.911Z,38.00
2022-12-03T04:58:03.130Z,43.03
2022-12-03T05:00:33.152Z,42.13
2022-12-03T05:03:02.897Z,46.53
2022-12-03T05:05:32.643Z,46.77
2022-12-03T05:08:02.344Z,59.60
2022-12-03T05:10:31.938Z,55.90
2022-12-03T05:13:04.158Z,61.37
2022-12-03T05:15:33.830Z,66.87
2022-12-03T05:18:03.502Z,63.67
2022-12-03T05:20:51.440Z,65.67
2022-12-03T05:23:23.197Z,65.10
2022-12-03T05:25:52.961Z,75.47
2022-12-03T05:28:25.294Z,69.57
2022-12-03T05:30:55.058Z,62.07
2022-12-03T05:33:24.613Z,69.67
2022-12-03T05:35:54.287Z,66.97
2022-12-03T05:38:23.924Z,67.87
2022-12-03T05:40:53.710Z,70.87
2022-12-03T05:43:23.504Z,67.50
2022-12-03T05:45:53.200Z,74.17
2022-12-03T05:48:22.766Z,75.97
2022-12-03T05:50:52.344Z,75.60
2022-12-03T05:53:21.928Z,68.27
2022-12-03T05:55:51.527Z,74.53
2022-12-03T05:58:21.202Z,81.13
2022-12-03T06:00:53.428Z,81.70
2022-12-03T06:03:23.274Z,84.17
2022-12-03T06:05:53.074Z,84.20
2022-12-03T06:08:22.647Z,76.27
2022-12-03T06:10:52.320Z,87.03
2022-12-03T06:13:21.993Z,77.50
2022-12-03T06:15:54.269Z,84.87
2022-12-03T06:18:23.954Z,79.00
2022-12-03T06:20:53.599Z,81.87
2022-12-03T06:23:23.203Z,96.23
2022-12-03T06:25:52.870Z,93.23
2022-12-03T06:28:22.499Z,98.00
2022-12-03T06:30:54.895Z,97.50
2022-12-03T06:33:24.574Z,98.10
2022-12-03T06:35:54.445Z,95.77
2022-12-03T06:38:24.187Z,93.90
2022-12-03T06:40:53.768Z,94.33
2022-12-03T06:43:23.356Z,100.83
2022-12-03T06:45:55.538Z,93.13
2022-12-03T06:48:25.100Z,105.07
2022-12-03T06:50:54.687Z,97.27
2022-12-03T06:53:24.328Z,93.07
2022-12-03T06:55:53.859Z,96.93
2022-12-03T06:58:23.448Z,102.27
2022-12-03T07:00:55.696Z,100.27
2022-12-03T07:03:25.314Z,101.67
2022-12-03T07:05:54.934Z,106.53
2022-12-03T07:08:24.629Z,96.23
2022-12-03T07:10:54.199Z,100.97
2022-12-03T07:13:23.794Z,101.50
2022-12-03T07:15:56.107Z,101.20
2022-12-03T07:18:25.830Z,101.60
2022-12-03T07:20:55.481Z,103.07
2022-12-03T07:23:25.058Z,102.93
2022-12-03T07:25:54.680Z,99.83
2022-12-03T07:28:24.320Z,96.90
2022-12-03T07:30:56.646Z,102.60
2022-12-03T07:33:26.321Z,106.53
2022-12-03T07:35:56.172Z,107.30
2022-12-03T07:38:25.883Z,99.53
2022-12-03T07:40:55.431Z,105.90
2022-12-03T07:43:25.043Z,110.33
2022-12-03T07:45:57.244Z,107.50
2022-12-03T07:48:26.941Z,101.37
2022-12-03T07:50:56.571Z,104.00
2022-12-03T07:53:26.313Z,100.33
2022-12-03T07:55:55.924Z,109.77
2022-12-03T07:58:25.610Z,99.63
2022-12-03T08:00:58.101Z,100.03
2022-12-03T08:03:28.025Z,111.83
2022-12-03T08:05:57.595Z,109.00
2022-12-03T08:08:27.206Z,105.93
2022-12-03T08:10:56.897Z,104.20
2022-12-03T08:13:26.517Z,102.37
2022-12-03T08:15:59.013Z,99.63
2022-12-03T08:18:29.849Z,100.27
2022-12-03T08:20:59.649Z,102.70
2022-12-03T08:23:29.338Z,100.27
2022-12-03T08:26:02.178Z,107.93
2022-12-03T08:28:32.311Z,107.80
2022-12-03T08:31:18.712Z,101.60
2022-12-03T08:33:50.358Z,101.30
2022-12-03T08:36:24.717Z,102.37
2022-12-03T08:38:57.545Z,99.13
2022-12-03T08:41:39.453Z,97.90
2022-12-03T08:44:23.991Z,109.93
2022-12-03T08:47:04.700Z,101.07
2022-12-03T08:49:34.634Z,98.43
2022-12-03T08:52:14.092Z,94.07
2022-12-03T08:54:44.859Z,87.07
2022-12-03T08:57:27.916Z,94.80
2022-12-03T09:00:01.990Z,97.13
2022-12-03T09:02:36.968Z,90.87
2022-12-03T09:05:18.891Z,98.33
2022-12-03T09:07:49.007Z,88.30
2022-12-03T09:10:18.925Z,87.53
2022-12-03T09:12:48.555Z,92.60
2022-12-03T09:15:18.583Z,87.80
2022-12-03T09:17:51.151Z,88.17
2022-12-03T09:20:20.827Z,84.60
2022-12-03T09:22:50.385Z,95.07
2022-12-03T09:25:20.121Z,86.27
2022-12-03T09:27:49.882Z,92.63
2022-12-03T09:30:20.033Z,82.03
2022-12-03T09:32:52.321Z,90.67
2022-12-03T09:35:22.143Z,82.63
2022-12-03T09:37:51.755Z,94.50
2022-12-03T09:40:22.116Z,93.03
2022-12-03T09:42:52.506Z,86.03
2022-12-03T09:45:24.309Z,84.53
2022-12-03T09:47:57.823Z,84.10
2022-12-03T09:50:29.403Z,88.87
2022-12-03T09:53:03.110Z,86.90
2022-12-03T09:55:33.616Z,88.47
2022-12-03T09:58:03.467Z,85.70
2022-12-03T10:00:34.808Z,79.67
2022-12-03T10:03:10.049Z,81.77
2022-12-03T10:05:43.732Z,82.43
2022-12-03T10:08:21.702Z,87.37
2022-12-03T10:10:56.636Z,75.57
2022-12-03T10:13:30.184Z,80.43
2022-12-03T10:16:02.799Z,78.13
2022-12-03T10:18:41.516Z,74.97
2022-12-03T10:21:19.876Z,80.80
2022-12-03T10:23:55.168Z,73.80
2022-12-03T10:26:42.078Z,77.33
2022-12-03T10:29:16.056Z,76.80
2022-12-03T10:31:45.829Z,78.13
2022-12-03T10:34:27.187Z,73.73
2022-12-03T10:37:14.198Z,75.57
2022-12-03T10:39:59.247Z,74.67
2022-12-03T10:42:31.146Z,73.67
2022-12-03T10:45:15.416Z,76.60
2022-12-03T10:47:45.719Z,74.13
2022-12-03T10:50:22.456Z,77.87
2022-12-03T10:52:52.014Z,75.00
2022-12-03T10:55:21.809Z,79.27
2022-12-03T10:57:51.501Z,76.83
2022-12-03T11:00:22.835Z,66.10
2022-12-03T11:02:56.643Z,73.00
2022-12-03T11:05:30.918Z,81.77
2022-12-03T11:08:00.671Z,86.73
2022-12-03T11:10:30.405Z,86.87
2022-12-03T11:13:30.052Z,77.27
2022-12-03T11:16:00.393Z,69.77
2022-12-03T11:18:59.990Z,78.27
2022-12-03T11:21:32.948Z,78.60
2022-12-03T11:24:24.779Z,66.70
2022-12-03T11:27:20.861Z,97.97
2022-12-03T11:30:05.458Z,73.43
2022-12-03T11:33:10.860Z,71.77
2022-12-03T11:36:16.567Z,72.03
2022-12-03T11:38:57.732Z,81.33
2022-12-03T11:41:32.724Z,72.63
2022-12-03T11:44:22.144Z,68.93
2022-12-03T11:46:52.331Z,67.67
2022-12-03T11:49:31.608Z,72.67
2022-12-03T11:52:03.451Z,73.73
2022-12-03T11:54:38.481Z,74.10
2022-12-03T11:57:35.786Z,74.13
2022-12-03T12:00:26.900Z,70.10
2022-12-03T12:02:59.351Z,74.50
2022-12-03T12:05:32.563Z,75.00
2022-12-03T12:08:03.822Z,77.13
2022-12-03T12:10:50.549Z,67.00
2022-12-03T12:13:57.078Z,71.73
2022-12-03T12:16:50.198Z,70.07
2022-12-03T12:19:35.127Z,72.80
2022-12-03T12:22:32.193Z,72.67
2022-12-03T12:25:03.498Z,71.80
2022-12-03T12:27:39.505Z,73.40
2022-12-03T12:30:12.821Z,69.77
2022-12-03T12:32:48.048Z,75.27
2022-12-03T12:35:20.970Z,71.50
2022-12-03T12:37:59.193Z,73.23
2022-12-03T12:40:32.102Z,76.40
2022-12-03T12:43:13.261Z,73.47
2022-12-03T12:45:47.252Z,71.67
2022-12-03T12:48:25.229Z,74.20
2022-12-03T12:51:02.839Z,71.17
2022-12-03T12:53:34.522Z,75.40
2022-12-03T12:56:14.937Z,70.97
2022-12-03T12:58:47.063Z,66.90
2022-12-03T13:01:23.188Z,72.57
2022-12-03T13:03:54.790Z,73.97
2022-12-03T13:06:28.799Z,74.07
2022-12-03T13:09:01.153Z,79.40
2022-12-03T13:11:41.404Z,76.17
2022-12-03T13:14:19.730Z,72.00
2022-12-03T13:16:50.984Z,70.63
2022-12-03T13:19:26.175Z,75.30
2022-12-03T13:21:57.613Z,75.50
2022-12-03T13:24:32.948Z,73.63
2022-12-03T13:27:05.209Z,75.87
2022-12-03T13:29:37.548Z,80.93
2022-12-03T13:32:14.295Z,78.27
2022-12-03T13:34:44.918Z,74.67
2022-12-03T13:37:18.005Z,73.43
2022-12-03T13:39:50.476Z,76.30
2022-12-03T13:42:36.044Z,81.33
2022-12-03T13:45:25.323Z,75.70
2022-12-03T13:47:58.407Z,77.33
2022-12-03T13:50:34.549Z,76.00
2022-12-03T13:53:04.607Z,70.83
2022-12-03T13:55:34.515Z,72.47
2022-12-03T13:58:04.043Z,76.90
2022-12-03T14:00:36.302Z,78.57
2022-12-03T14:03:05.986Z,75.70
2022-12-03T14:05:35.649Z,79.17
2022-12-03T14:08:07.743Z,80.13
2022-12-03T14:10:37.470Z,87.37
2022-12-03T14:13:06.933Z,74.33
2022-12-03T14:15:39.164Z,75.37
2022-12-03T14:18:08.861Z,83.63
2022-12-03T14:20:38.482Z,78.93
2022-12-03T14:23:07.979Z,76.40
2022-12-03T14:25:37.624Z,74.90
2022-12-03T14:28:08.716Z,79.13
2022-12-03T14:30:41.064Z,79.10
2022-12-03T14:33:10.650Z,80.90
2022-12-03T14:35:40.221Z,75.27
2022-12-03T14:38:09.757Z,73.83
2022-12-03T14:40:39.327Z,77.00
2022-12-03T14:43:08.912Z,75.20
2022-12-03T14:45:41.073Z,74.70
2022-12-03T14:48:10.834Z,71.67
2022-12-03T14:50:40.312Z,70.67
2022-12-03T14:53:09.746Z,74.97
2022-12-03T14:55:39.278Z,70.30
2022-12-03T14:58:08.763Z,71.13
2022-12-03T15:00:40.966Z,75.67
2022-12-03T15:03:10.586Z,72.87
2022-12-03T15:05:40.104Z,68.90
2022-12-03T15:08:09.833Z,72.87
2022-12-03T15:10:39.411Z,73.67
2022-12-03T15:13:08.881Z,70.23
2022-12-03T15:15:41.119Z,68.57
2022-12-03T15:18:10.632Z,72.57
2022-12-03T15:20:40.422Z,70.67
2022-12-03T15:23:14.329Z,88.73
2022-12-03T15:25:44.590Z,74.67
2022-12-03T15:28:14.186Z,79.87
2022-12-03T15:30:46.316Z,66.77
2022-12-03T15:33:16.130Z,69.73
2022-12-03T15:35:45.690Z,69.10
2022-12-03T15:38:15.576Z,70.27
2022-12-03T15:40:45.137Z,69.37
2022-12-03T15:43:14.960Z,68.00
2022-12-03T15:45:47.230Z,68.97
2022-12-03T15:48:16.774Z,67.67
2022-12-03T15:51:10.615Z,67.67
2022-12-03T15:53:40.360Z,64.90
2022-12-03T15:56:11.994Z,66.17
2022-12-03T15:58:41.442Z,63.43
2022-12-03T16:01:14.296Z,70.40
2022-12-03T16:03:44.066Z,118.57
2022-12-03T16:06:18.180Z,69.77
2022-12-03T16:08:48.324Z,64.50
2022-12-03T16:11:17.842Z,65.60
2022-12-03T16:13:47.442Z,63.73
2022-12-03T16:16:19.685Z,62.37
2022-12-03T16:18:49.275Z,63.60
2022-12-03T16:21:23.367Z,66.07
2022-12-03T16:23:55.943Z,65.03
2022-12-03T16:26:25.886Z,67.03
2022-12-03T16:28:55.456Z,67.20
2022-12-03T16:31:27.847Z,67.23
2022-12-03T16:33:57.494Z,64.00
2022-12-03T16:36:27.047Z,70.57
2022-12-03T16:38:56.698Z,68.03
2022-12-03T16:41:26.345Z,64.70
2022-12-03T16:43:55.912Z,67.87
2022-12-03T16:46:28.516Z,67.47
2022-12-03T16:48:59.619Z,68.93
2022-12-03T16:51:30.740Z,64.30
2022-12-03T16:54:00.286Z,62.63
2022-12-03T16:56:29.809Z,64.17
2022-12-03T16:58:59.451Z,65.20
2022-12-03T17:01:32.231Z,67.47
2022-12-03T17:04:01.925Z,68.77
2022-12-03T17:06:31.499Z,65.70
2022-12-03T17:09:01.023Z,72.57
2022-12-03T17:11:30.660Z,71.23
2022-12-03T17:14:00.248Z,71.03
2022-12-03T17:16:32.647Z,72.20
2022-12-03T17:19:02.174Z,74.03
2022-12-03T17:21:34.852Z,74.50
2022-12-03T17:24:04.771Z,71.03
2022-12-03T17:26:34.260Z,67.40
2022-12-03T17:29:03.753Z,68.73
2022-12-03T17:31:41.704Z,71.77
2022-12-03T17:34:11.928Z,69.47
2022-12-03T17:36:41.466Z,68.07
2022-12-03T17:39:11.161Z,72.90
2022-12-03T17:41:40.796Z,68.03
2022-12-03T17:44:12.932Z,71.70
2022-12-03T17:46:47.426Z,71.60
2022-12-03T17:49:16.936Z,67.47
2022-12-03T17:51:46.422Z,68.63
2022-12-03T17:54:16.015Z,75.73
2022-12-03T17:56:45.640Z,78.77
2022-12-03T17:59:16.059Z,69.13
2022-12-03T18:01:48.219Z,68.97
2022-12-03T18:04:17.910Z,75.27
2022-12-03T18:06:47.454Z,72.53
2022-12-03T18:09:16.947Z,73.80
2022-12-03T18:11:46.733Z,75.43
2022-12-03T18:14:16.355Z,72.80
2022-12-03T18:16:48.496Z,77.33
2022-12-03T18:19:18.022Z,69.47
2022-12-03T18:21:47.587Z,74.60
2022-12-03T18:24:17.350Z,75.40
2022-12-03T18:26:46.983Z,74.90
2022-12-03T18:29:16.680Z,75.07
2022-12-03T18:31:48.879Z,74.33
2022-12-03T18:34:18.455Z,84.13
2022-12-03T18:36:48.685Z,82.63
2022-12-03T18:39:26.477Z,78.73
2022-12-03T18:41:56.700Z,93.57
2022-12-03T18:44:26.280Z,85.70
2022-12-03T18:46:59.230Z,84.13
2022-12-03T18:49:28.820Z,100.20
2022-12-03T18:51:59.696Z,90.23
2022-12-03T18:54:29.489Z,86.97
2022-12-03T18:56:59.180Z,83.53
2022-12-03T18:59:28.699Z,134.53
2022-12-03T19:02:01.374Z,83.63
2022-12-03T19:04:31.131Z,82.83
2022-12-03T19:07:00.654Z,105.07
2022-12-03T19:09:30.593Z,97.63
2022-12-03T19:12:00.181Z,89.80
2022-12-03T19:14:29.701Z,111.40
2022-12-03T19:17:01.934Z,89.87
2022-12-03T19:19:32.361Z,92.40
2022-12-03T19:22:02.154Z,92.27
2022-12-03T19:24:31.729Z,81.33
2022-12-03T19:27:01.223Z,92.03
2022-12-03T19:29:30.792Z,93.03
2022-12-03T19:32:03.356Z,83.90
2022-12-03T19:34:33.340Z,95.53
2022-12-03T19:37:03.127Z,93.53
2022-12-03T19:39:33.359Z,103.87
2022-12-03T19:42:02.983Z,100.90
2022-12-03T19:44:33.316Z,93.43
2022-12-03T19:47:05.614Z,92.23
2022-12-03T19:49:35.495Z,93.47
2022-12-03T19:52:05.006Z,96.17
2022-12-03T19:54:34.562Z,94.60
2022-12-03T19:57:04.142Z,102.20
2022-12-03T19:59:33.824Z,96.33
2022-12-03T20:02:06.089Z,90.37
2022-12-03T20:04:35.769Z,85.97
2022-12-03T20:07:05.294Z,100.87
2022-12-03T20:09:34.965Z,97.50
2022-12-03T20:12:04.504Z,95.00
2022-12-03T20:14:34.059Z,102.47
2022-12-03T20:17:06.431Z,101.03
2022-12-03T20:19:36.055Z,104.07
2022-12-03T20:22:05.624Z,102.47
2022-12-03T20:24:35.196Z,104.53
2022-12-03T20:27:04.803Z,104.43
2022-12-03T20:29:34.288Z,100.40
2022-12-03T20:32:07.134Z,97.50
2022-12-03T20:34:37.083Z,103.33
2022-12-03T20:37:06.643Z,103.37
2022-12-03T20:39:36.315Z,104.03
2022-12-03T20:42:06.015Z,105.23
2022-12-03T20:44:35.490Z,104.10
2022-12-03T20:47:07.997Z,109.93
2022-12-03T20:49:39.097Z,106.90
2022-12-03T20:52:08.799Z,113.23
2022-12-03T20:54:38.351Z,113.87
2022-12-03T20:57:07.995Z,113.90
2022-12-03T20:59:37.550Z,121.17
2022-12-03T21:02:09.701Z,112.43
2022-12-03T21:04:39.404Z,112.43
2022-12-03T21:07:08.894Z,118.93
2022-12-03T21:09:38.523Z,120.53
2022-12-03T21:12:08.316Z,114.70
2022-12-03T21:14:38.351Z,118.37
2022-12-03T21:17:10.566Z,115.90
2022-12-03T21:19:40.529Z,126.60
2022-12-03T21:22:10.563Z,122.53
2022-12-03T21:24:42.812Z,120.13
2022-12-03T21:27:16.939Z,118.20
2022-12-03T21:29:49.533Z,126.77
2022-12-03T21:32:21.716Z,122.20
2022-12-03T21:34:51.286Z,133.23
2022-12-03T21:37:20.843Z,126.40
2022-12-03T21:39:50.459Z,122.73
2022-12-03T21:42:35.734Z,114.33
2022-12-03T21:45:07.473Z,132.00
2022-12-03T21:47:39.778Z,121.20
2022-12-03T21:50:12.075Z,120.77
2022-12-03T21:52:41.597Z,124.77
2022-12-03T21:55:12.564Z,115.20
2022-12-03T21:57:42.117Z,122.97
2022-12-03T22:00:13.023Z,119.37
2022-12-03T22:02:45.422Z,127.43
2022-12-03T22:05:15.234Z,120.03
2022-12-03T22:07:45.028Z,135.40
2022-12-03T22:10:15.626Z,134.47
2022-12-03T22:12:45.518Z,128.27
2022-12-03T22:15:19.210Z,142.03
2022-12-03T22:17:51.831Z,129.60
2022-12-03T22:20:21.836Z,119.40
2022-12-03T22:22:51.506Z,125.00
2022-12-03T22:25:21.170Z,129.23
2022-12-03T22:27:50.719Z,123.90
2022-12-03T22:30:20.347Z,123.93
2022-12-03T22:32:52.568Z,118.10
2022-12-03T22:35:22.101Z,128.10
2022-12-03T22:37:51.669Z,127.13
2022-12-03T22:40:21.438Z,120.07
2022-12-03T22:42:51.271Z,123.53
2022-12-03T22:45:20.891Z,129.93
2022-12-03T22:47:53.044Z,116.97
2022-12-03T22:50:22.577Z,131.63
2022-12-03T22:52:52.110Z,146.17
2022-12-03T22:55:21.758Z,161.73
2022-12-03T22:57:51.559Z,139.20
2022-12-03T23:00:31.828Z,141.90
2022-12-03T23:03:04.565Z,125.67
2022-12-03T23:05:37.056Z,135.00
2022-12-03T23:08:06.956Z,120.40
2022-12-03T23:10:37.794Z,128.37
2022-12-03T23:13:08.565Z,132.83
2022-12-03T23:15:38.798Z,144.17
2022-12-03T23:18:11.190Z,141.07
2022-12-03T23:20:45.117Z,135.93
2022-12-03T23:23:15.437Z,129.83
2022-12-03T23:25:45.305Z,134.93
2022-12-03T23:28:15.251Z,121.97
2022-12-03T23:30:44.811Z,137.20
2022-12-03T23:33:17.036Z,118.07
2022-12-03T23:35:46.637Z,123.70
2022-12-03T23:38:16.353Z,133.70
2022-12-03T23:40:48.643Z,125.30
2022-12-03T23:43:18.552Z,133.77
2022-12-03T23:45:48.236Z,130.23
2022-12-03T23:48:20.336Z,132.43
2022-12-03T23:50:50.089Z,127.53
2022-12-03T23:53:19.644Z,134.17
2022-12-03T23:55:49.223Z,125.10
2022-12-03T23:58:19.099Z,130.60
